sensor_id;sensor_type;location;lat;lon;timestamp;P1;durP1;ratioP1;P2;durP2;ratioP2
69417;SDS011;56610;48.872;2.400;2023-02-01T00:01:55;7.78;;;3.35;;
69417;SDS011;56610;48.872;2.400;2023-02-01T00:04:21;6.65;;;2.90;;
69417;SDS011;56610;48.872;2.400;2023-02-01T00:06:47;7.88;;;2.97;;
69417;SDS011;56610;48.872;2.400;2023-02-01T00:09:13;6.60;;;2.83;;
69417;SDS011;56610;48.872;2.400;2023-02-01T00:11:38;8.32;;;3.45;;
69417;SDS011;56610;48.872;2.400;2023-02-01T00:14:05;7.18;;;3.10;;
69417;SDS011;56610;48.872;2.400;2023-02-01T00:16:31;7.38;;;3.17;;
69417;SDS011;56610;48.872;2.400;2023-02-01T00:21:28;6.78;;;3.17;;
69417;SDS011;56610;48.872;2.400;2023-02-01T00:23:55;6.72;;;3.15;;
69417;SDS011;56610;48.872;2.400;2023-02-01T00:26:30;8.95;;;3.10;;
69417;SDS011;56610;48.872;2.400;2023-02-01T00:28:57;7.88;;;3.10;;
69417;SDS011;56610;48.872;2.400;2023-02-01T00:31:24;5.80;;;2.97;;
69417;SDS011;56610;48.872;2.400;2023-02-01T00:33:49;8.10;;;3.33;;
69417;SDS011;56610;48.872;2.400;2023-02-01T00:36:15;6.55;;;2.90;;
69417;SDS011;56610;48.872;2.400;2023-02-01T00:38:41;6.25;;;2.80;;
69417;SDS011;56610;48.872;2.400;2023-02-01T00:41:14;5.80;;;2.55;;
69417;SDS011;56610;48.872;2.400;2023-02-01T00:43:41;6.88;;;2.72;;
69417;SDS011;56610;48.872;2.400;2023-02-01T00:46:07;5.97;;;2.80;;
69417;SDS011;56610;48.872;2.400;2023-02-01T00:48:33;6.53;;;2.35;;
69417;SDS011;56610;48.872;2.400;2023-02-01T00:50:59;7.50;;;2.97;;
69417;SDS011;56610;48.872;2.400;2023-02-01T00:53:25;6.45;;;2.92;;
69417;SDS011;56610;48.872;2.400;2023-02-01T00:55:51;7.25;;;2.92;;
69417;SDS011;56610;48.872;2.400;2023-02-01T00:58:17;6.05;;;2.92;;
69417;SDS011;56610;48.872;2.400;2023-02-01T01:00:42;6.80;;;2.25;;
69417;SDS011;56610;48.872;2.400;2023-02-01T01:03:08;5.82;;;2.63;;
69417;SDS011;56610;48.872;2.400;2023-02-01T01:05:43;7.18;;;2.85;;
69417;SDS011;56610;48.872;2.400;2023-02-01T01:08:10;5.40;;;2.17;;
69417;SDS011;56610;48.872;2.400;2023-02-01T01:10:35;8.05;;;3.00;;
69417;SDS011;56610;48.872;2.400;2023-02-01T01:13:01;7.55;;;2.45;;
69417;SDS011;56610;48.872;2.400;2023-02-01T01:15:26;7.28;;;2.50;;
69417;SDS011;56610;48.872;2.400;2023-02-01T01:17:52;6.85;;;2.80;;
69417;SDS011;56610;48.872;2.400;2023-02-01T01:20:18;8.63;;;3.10;;
69417;SDS011;56610;48.872;2.400;2023-02-01T01:22:46;6.30;;;2.30;;
69417;SDS011;56610;48.872;2.400;2023-02-01T01:25:12;11.10;;;3.08;;
69417;SDS011;56610;48.872;2.400;2023-02-01T01:27:38;9.40;;;2.92;;
69417;SDS011;56610;48.872;2.400;2023-02-01T01:30:03;7.60;;;3.00;;
69417;SDS011;56610;48.872;2.400;2023-02-01T01:32:29;5.55;;;2.35;;
69417;SDS011;56610;48.872;2.400;2023-02-01T01:34:55;10.18;;;2.88;;
69417;SDS011;56610;48.872;2.400;2023-02-01T01:37:21;9.18;;;3.00;;
69417;SDS011;56610;48.872;2.400;2023-02-01T01:39:46;7.30;;;2.50;;
69417;SDS011;56610;48.872;2.400;2023-02-01T01:42:12;8.45;;;3.00;;
69417;SDS011;56610;48.872;2.400;2023-02-01T01:47:29;6.22;;;2.78;;
69417;SDS011;56610;48.872;2.400;2023-02-01T01:50:02;6.93;;;2.58;;
69417;SDS011;56610;48.872;2.400;2023-02-01T01:52:30;10.60;;;2.58;;
69417;SDS011;56610;48.872;2.400;2023-02-01T01:54:56;9.80;;;2.97;;
69417;SDS011;56610;48.872;2.400;2023-02-01T01:57:25;8.23;;;2.58;;
69417;SDS011;56610;48.872;2.400;2023-02-01T02:00:00;9.48;;;2.83;;
69417;SDS011;56610;48.872;2.400;2023-02-01T02:02:34;8.27;;;2.40;;
69417;SDS011;56610;48.872;2.400;2023-02-01T02:05:02;9.10;;;2.88;;
69417;SDS011;56610;48.872;2.400;2023-02-01T02:07:30;9.18;;;2.53;;
69417;SDS011;56610;48.872;2.400;2023-02-01T02:09:59;7.10;;;2.53;;
69417;SDS011;56610;48.872;2.400;2023-02-01T02:12:25;9.48;;;2.63;;
69417;SDS011;56610;48.872;2.400;2023-02-01T02:14:51;9.00;;;2.38;;
69417;SDS011;56610;48.872;2.400;2023-02-01T02:22:48;8.70;;;2.75;;
69417;SDS011;56610;48.872;2.400;2023-02-01T02:25:46;10.95;;;2.70;;
69417;SDS011;56610;48.872;2.400;2023-02-01T02:28:43;9.40;;;2.83;;
69417;SDS011;56610;48.872;2.400;2023-02-01T02:40:01;11.88;;;2.40;;
69417;SDS011;56610;48.872;2.400;2023-02-01T02:42:23;11.20;;;2.55;;
69417;SDS011;56610;48.872;2.400;2023-02-01T02:45:42;8.07;;;2.70;;
69417;SDS011;56610;48.872;2.400;2023-02-01T02:51:52;8.15;;;2.60;;
69417;SDS011;56610;48.872;2.400;2023-02-01T02:54:57;10.38;;;2.78;;
69417;SDS011;56610;48.872;2.400;2023-02-01T02:57:37;9.52;;;2.78;;
69417;SDS011;56610;48.872;2.400;2023-02-01T03:03:11;10.95;;;2.45;;
69417;SDS011;56610;48.872;2.400;2023-02-01T03:05:55;7.20;;;2.17;;
69417;SDS011;56610;48.872;2.400;2023-02-01T03:08:25;9.25;;;2.60;;
69417;SDS011;56610;48.872;2.400;2023-02-01T03:13:38;9.82;;;2.63;;
69417;SDS011;56610;48.872;2.400;2023-02-01T03:18:51;10.43;;;2.72;;
69417;SDS011;56610;48.872;2.400;2023-02-01T03:21:48;9.88;;;2.78;;
69417;SDS011;56610;48.872;2.400;2023-02-01T03:29:55;12.18;;;2.88;;
69417;SDS011;56610;48.872;2.400;2023-02-01T03:32:32;12.40;;;2.67;;
69417;SDS011;56610;48.872;2.400;2023-02-01T03:37:49;11.18;;;2.65;;
69417;SDS011;56610;48.872;2.400;2023-02-01T03:40:15;12.27;;;3.30;;
69417;SDS011;56610;48.872;2.400;2023-02-01T03:42:46;14.30;;;3.45;;
69417;SDS011;56610;48.872;2.400;2023-02-01T03:45:23;11.38;;;3.15;;
69417;SDS011;56610;48.872;2.400;2023-02-01T03:47:56;12.73;;;2.95;;
69417;SDS011;56610;48.872;2.400;2023-02-01T03:50:25;11.95;;;3.08;;
69417;SDS011;56610;48.872;2.400;2023-02-01T03:52:54;10.40;;;2.45;;
69417;SDS011;56610;48.872;2.400;2023-02-01T03:55:31;13.20;;;2.72;;
69417;SDS011;56610;48.872;2.400;2023-02-01T03:57:58;7.88;;;2.38;;
69417;SDS011;56610;48.872;2.400;2023-02-01T04:00:31;9.90;;;2.30;;
69417;SDS011;56610;48.872;2.400;2023-02-01T04:02:56;10.10;;;2.58;;
69417;SDS011;56610;48.872;2.400;2023-02-01T04:05:22;9.10;;;2.72;;
69417;SDS011;56610;48.872;2.400;2023-02-01T04:07:48;10.32;;;2.88;;
69417;SDS011;56610;48.872;2.400;2023-02-01T04:10:13;12.27;;;3.08;;
69417;SDS011;56610;48.872;2.400;2023-02-01T04:12:39;13.82;;;3.05;;
69417;SDS011;56610;48.872;2.400;2023-02-01T04:15:05;12.07;;;3.17;;
69417;SDS011;56610;48.872;2.400;2023-02-01T04:17:32;13.55;;;3.42;;
69417;SDS011;56610;48.872;2.400;2023-02-01T04:19:57;8.60;;;2.33;;
69417;SDS011;56610;48.872;2.400;2023-02-01T04:22:23;10.30;;;2.80;;
69417;SDS011;56610;48.872;2.400;2023-02-01T04:24:48;10.38;;;2.85;;
69417;SDS011;56610;48.872;2.400;2023-02-01T04:27:14;9.30;;;2.55;;
69417;SDS011;56610;48.872;2.400;2023-02-01T04:29:40;10.88;;;2.70;;
69417;SDS011;56610;48.872;2.400;2023-02-01T04:32:06;8.63;;;2.45;;
69417;SDS011;56610;48.872;2.400;2023-02-01T04:34:31;8.23;;;2.60;;
69417;SDS011;56610;48.872;2.400;2023-02-01T04:36:57;7.20;;;2.50;;
69417;SDS011;56610;48.872;2.400;2023-02-01T04:39:22;10.23;;;2.83;;
69417;SDS011;56610;48.872;2.400;2023-02-01T04:41:48;14.40;;;3.35;;
69417;SDS011;56610;48.872;2.400;2023-02-01T04:44:14;9.63;;;2.70;;
69417;SDS011;56610;48.872;2.400;2023-02-01T04:46:43;11.57;;;2.70;;
69417;SDS011;56610;48.872;2.400;2023-02-01T04:49:09;10.32;;;2.78;;
69417;SDS011;56610;48.872;2.400;2023-02-01T04:51:36;9.27;;;2.80;;
69417;SDS011;56610;48.872;2.400;2023-02-01T04:54:02;8.10;;;2.53;;
69417;SDS011;56610;48.872;2.400;2023-02-01T04:56:27;8.98;;;2.83;;
69417;SDS011;56610;48.872;2.400;2023-02-01T04:58:53;11.50;;;2.60;;
69417;SDS011;56610;48.872;2.400;2023-02-01T05:01:20;12.75;;;2.88;;
69417;SDS011;56610;48.872;2.400;2023-02-01T05:03:45;10.65;;;3.08;;
69417;SDS011;56610;48.872;2.400;2023-02-01T05:06:11;12.65;;;3.05;;
69417;SDS011;56610;48.872;2.400;2023-02-01T05:08:36;11.82;;;3.22;;
69417;SDS011;56610;48.872;2.400;2023-02-01T05:11:02;12.93;;;3.00;;
69417;SDS011;56610;48.872;2.400;2023-02-01T05:13:28;11.82;;;3.22;;
69417;SDS011;56610;48.872;2.400;2023-02-01T05:16:13;9.02;;;2.88;;
69417;SDS011;56610;48.872;2.400;2023-02-01T05:18:39;10.50;;;2.92;;
69417;SDS011;56610;48.872;2.400;2023-02-01T05:21:04;16.17;;;3.20;;
69417;SDS011;56610;48.872;2.400;2023-02-01T05:23:30;12.30;;;3.22;;
69417;SDS011;56610;48.872;2.400;2023-02-01T05:25:59;11.77;;;3.35;;
69417;SDS011;56610;48.872;2.400;2023-02-01T05:28:26;7.45;;;2.50;;
69417;SDS011;56610;48.872;2.400;2023-02-01T05:30:52;9.30;;;2.58;;
69417;SDS011;56610;48.872;2.400;2023-02-01T05:33:18;14.13;;;3.42;;
69417;SDS011;56610;48.872;2.400;2023-02-01T05:35:43;14.73;;;3.22;;
69417;SDS011;56610;48.872;2.400;2023-02-01T05:38:09;12.32;;;3.22;;
69417;SDS011;56610;48.872;2.400;2023-02-01T05:40:34;9.98;;;3.10;;
69417;SDS011;56610;48.872;2.400;2023-02-01T05:43:00;10.68;;;3.00;;
69417;SDS011;56610;48.872;2.400;2023-02-01T05:45:25;12.38;;;2.97;;
69417;SDS011;56610;48.872;2.400;2023-02-01T05:47:51;12.30;;;2.88;;
69417;SDS011;56610;48.872;2.400;2023-02-01T05:50:16;12.48;;;3.05;;
69417;SDS011;56610;48.872;2.400;2023-02-01T05:52:42;12.63;;;3.13;;
69417;SDS011;56610;48.872;2.400;2023-02-01T05:55:08;13.73;;;3.13;;
69417;SDS011;56610;48.872;2.400;2023-02-01T05:57:33;14.32;;;3.53;;
69417;SDS011;56610;48.872;2.400;2023-02-01T05:59:59;10.73;;;2.85;;
69417;SDS011;56610;48.872;2.400;2023-02-01T06:02:25;14.02;;;3.55;;
69417;SDS011;56610;48.872;2.400;2023-02-01T06:04:51;10.45;;;2.88;;
69417;SDS011;56610;48.872;2.400;2023-02-01T06:07:16;13.88;;;3.40;;
69417;SDS011;56610;48.872;2.400;2023-02-01T06:09:42;7.72;;;2.65;;
69417;SDS011;56610;48.872;2.400;2023-02-01T06:12:08;13.07;;;3.65;;
69417;SDS011;56610;48.872;2.400;2023-02-01T06:14:33;10.82;;;2.85;;
69417;SDS011;56610;48.872;2.400;2023-02-01T06:16:59;10.30;;;3.25;;
69417;SDS011;56610;48.872;2.400;2023-02-01T06:19:24;12.32;;;2.88;;
69417;SDS011;56610;48.872;2.400;2023-02-01T06:21:50;11.13;;;2.85;;
69417;SDS011;56610;48.872;2.400;2023-02-01T06:24:16;8.40;;;3.15;;
69417;SDS011;56610;48.872;2.400;2023-02-01T06:26:41;9.48;;;2.88;;
69417;SDS011;56610;48.872;2.400;2023-02-01T06:29:09;10.95;;;3.05;;
69417;SDS011;56610;48.872;2.400;2023-02-01T06:31:35;12.93;;;3.40;;
69417;SDS011;56610;48.872;2.400;2023-02-01T06:34:00;13.07;;;3.70;;
69417;SDS011;56610;48.872;2.400;2023-02-01T06:36:27;10.90;;;3.20;;
69417;SDS011;56610;48.872;2.400;2023-02-01T06:38:53;14.27;;;3.10;;
69417;SDS011;56610;48.872;2.400;2023-02-01T06:41:21;10.82;;;3.00;;
69417;SDS011;56610;48.872;2.400;2023-02-01T06:43:47;12.50;;;3.40;;
69417;SDS011;56610;48.872;2.400;2023-02-01T06:46:13;12.18;;;3.25;;
69417;SDS011;56610;48.872;2.400;2023-02-01T06:48:38;10.55;;;3.10;;
69417;SDS011;56610;48.872;2.400;2023-02-01T06:51:04;9.98;;;2.88;;
69417;SDS011;56610;48.872;2.400;2023-02-01T06:53:31;13.00;;;3.03;;
69417;SDS011;56610;48.872;2.400;2023-02-01T06:55:58;10.65;;;3.50;;
69417;SDS011;56610;48.872;2.400;2023-02-01T06:58:27;9.95;;;3.38;;
69417;SDS011;56610;48.872;2.400;2023-02-01T07:00:54;16.50;;;3.50;;
69417;SDS011;56610;48.872;2.400;2023-02-01T07:03:20;13.40;;;3.58;;
69417;SDS011;56610;48.872;2.400;2023-02-01T07:05:46;10.32;;;3.05;;
69417;SDS011;56610;48.872;2.400;2023-02-01T07:08:11;13.63;;;3.40;;
69417;SDS011;56610;48.872;2.400;2023-02-01T07:10:37;12.20;;;3.17;;
69417;SDS011;56610;48.872;2.400;2023-02-01T07:13:03;12.85;;;3.28;;
69417;SDS011;56610;48.872;2.400;2023-02-01T07:15:28;10.10;;;3.58;;
69417;SDS011;56610;48.872;2.400;2023-02-01T07:17:54;11.90;;;3.25;;
69417;SDS011;56610;48.872;2.400;2023-02-01T07:20:20;12.77;;;3.50;;
69417;SDS011;56610;48.872;2.400;2023-02-01T07:22:46;10.10;;;3.28;;
69417;SDS011;56610;48.872;2.400;2023-02-01T07:25:12;10.60;;;3.63;;
69417;SDS011;56610;48.872;2.400;2023-02-01T07:27:37;13.13;;;3.30;;
69417;SDS011;56610;48.872;2.400;2023-02-01T07:30:04;14.00;;;3.17;;
69417;SDS011;56610;48.872;2.400;2023-02-01T07:32:30;15.05;;;3.47;;
69417;SDS011;56610;48.872;2.400;2023-02-01T07:34:56;12.73;;;3.35;;
69417;SDS011;56610;48.872;2.400;2023-02-01T07:37:23;13.98;;;4.10;;
69417;SDS011;56610;48.872;2.400;2023-02-01T07:39:49;12.73;;;3.08;;
69417;SDS011;56610;48.872;2.400;2023-02-01T07:42:18;9.75;;;3.40;;
69417;SDS011;56610;48.872;2.400;2023-02-01T07:44:44;12.02;;;3.20;;
69417;SDS011;56610;48.872;2.400;2023-02-01T07:47:09;14.15;;;3.47;;
69417;SDS011;56610;48.872;2.400;2023-02-01T07:49:35;13.23;;;3.95;;
69417;SDS011;56610;48.872;2.400;2023-02-01T07:52:00;11.68;;;3.70;;
69417;SDS011;56610;48.872;2.400;2023-02-01T07:54:26;15.90;;;3.78;;
69417;SDS011;56610;48.872;2.400;2023-02-01T07:56:51;15.07;;;4.18;;
69417;SDS011;56610;48.872;2.400;2023-02-01T07:59:17;15.75;;;4.22;;
69417;SDS011;56610;48.872;2.400;2023-02-01T08:01:43;8.55;;;3.10;;
69417;SDS011;56610;48.872;2.400;2023-02-01T08:04:09;11.98;;;3.67;;
69417;SDS011;56610;48.872;2.400;2023-02-01T08:06:37;17.60;;;4.03;;
69417;SDS011;56610;48.872;2.400;2023-02-01T08:09:03;11.68;;;3.80;;
69417;SDS011;56610;48.872;2.400;2023-02-01T08:11:29;13.68;;;3.97;;
69417;SDS011;56610;48.872;2.400;2023-02-01T08:13:56;14.02;;;3.97;;
69417;SDS011;56610;48.872;2.400;2023-02-01T08:16:22;13.88;;;4.13;;
69417;SDS011;56610;48.872;2.400;2023-02-01T08:18:49;15.68;;;4.15;;
69417;SDS011;56610;48.872;2.400;2023-02-01T08:21:16;14.85;;;4.18;;
69417;SDS011;56610;48.872;2.400;2023-02-01T08:23:43;14.35;;;4.35;;
69417;SDS011;56610;48.872;2.400;2023-02-01T08:26:22;13.80;;;3.97;;
69417;SDS011;56610;48.872;2.400;2023-02-01T08:28:53;15.48;;;4.63;;
69417;SDS011;56610;48.872;2.400;2023-02-01T08:31:21;16.20;;;4.03;;
69417;SDS011;56610;48.872;2.400;2023-02-01T08:33:52;14.30;;;3.97;;
69417;SDS011;56610;48.872;2.400;2023-02-01T08:36:19;15.85;;;4.65;;
69417;SDS011;56610;48.872;2.400;2023-02-01T08:38:45;12.77;;;3.80;;
69417;SDS011;56610;48.872;2.400;2023-02-01T08:41:18;17.40;;;4.00;;
69417;SDS011;56610;48.872;2.400;2023-02-01T08:43:46;21.08;;;4.68;;
69417;SDS011;56610;48.872;2.400;2023-02-01T08:46:13;17.33;;;4.68;;
69417;SDS011;56610;48.872;2.400;2023-02-01T08:48:38;15.45;;;4.43;;
69417;SDS011;56610;48.872;2.400;2023-02-01T08:51:06;15.05;;;4.22;;
69417;SDS011;56610;48.872;2.400;2023-02-01T08:53:36;11.40;;;3.80;;
69417;SDS011;56610;48.872;2.400;2023-02-01T08:56:03;16.25;;;3.80;;
69417;SDS011;56610;48.872;2.400;2023-02-01T08:58:28;15.43;;;3.80;;
69417;SDS011;56610;48.872;2.400;2023-02-01T09:00:54;15.68;;;4.10;;
69417;SDS011;56610;48.872;2.400;2023-02-01T09:03:20;15.13;;;3.70;;
69417;SDS011;56610;48.872;2.400;2023-02-01T09:05:46;12.13;;;3.58;;
69417;SDS011;56610;48.872;2.400;2023-02-01T09:08:12;11.88;;;3.65;;
69417;SDS011;56610;48.872;2.400;2023-02-01T09:10:40;15.43;;;3.60;;
69417;SDS011;56610;48.872;2.400;2023-02-01T09:13:06;13.02;;;3.85;;
69417;SDS011;56610;48.872;2.400;2023-02-01T09:15:33;11.05;;;3.65;;
69417;SDS011;56610;48.872;2.400;2023-02-01T09:17:58;16.45;;;3.80;;
69417;SDS011;56610;48.872;2.400;2023-02-01T09:20:24;11.75;;;3.55;;
69417;SDS011;56610;48.872;2.400;2023-02-01T09:22:50;14.88;;;4.38;;
69417;SDS011;56610;48.872;2.400;2023-02-01T09:25:17;12.75;;;3.67;;
69417;SDS011;56610;48.872;2.400;2023-02-01T09:27:42;16.17;;;4.60;;
69417;SDS011;56610;48.872;2.400;2023-02-01T09:30:08;14.10;;;3.95;;
69417;SDS011;56610;48.872;2.400;2023-02-01T09:32:35;13.25;;;3.47;;
69417;SDS011;56610;48.872;2.400;2023-02-01T09:35:00;15.80;;;3.53;;
69417;SDS011;56610;48.872;2.400;2023-02-01T09:37:26;14.80;;;3.78;;
69417;SDS011;56610;48.872;2.400;2023-02-01T09:39:52;13.52;;;3.70;;
69417;SDS011;56610;48.872;2.400;2023-02-01T09:42:24;15.05;;;4.15;;
69417;SDS011;56610;48.872;2.400;2023-02-01T09:47:54;14.63;;;3.63;;
69417;SDS011;56610;48.872;2.400;2023-02-01T09:50:28;12.63;;;3.67;;
69417;SDS011;56610;48.872;2.400;2023-02-01T09:53:05;10.60;;;3.33;;
69417;SDS011;56610;48.872;2.400;2023-02-01T09:55:45;13.60;;;3.67;;
69417;SDS011;56610;48.872;2.400;2023-02-01T09:58:18;13.75;;;3.72;;
69417;SDS011;56610;48.872;2.400;2023-02-01T10:01:03;14.88;;;3.28;;
69417;SDS011;56610;48.872;2.400;2023-02-01T10:03:31;16.95;;;4.03;;
69417;SDS011;56610;48.872;2.400;2023-02-01T10:09:01;12.27;;;4.00;;
69417;SDS011;56610;48.872;2.400;2023-02-01T10:20:14;8.85;;;3.28;;
69417;SDS011;56610;48.872;2.400;2023-02-01T10:25:52;15.57;;;3.97;;
69417;SDS011;56610;48.872;2.400;2023-02-01T10:28:20;17.15;;;3.85;;
69417;SDS011;56610;48.872;2.400;2023-02-01T10:30:49;11.65;;;4.10;;
69417;SDS011;56610;48.872;2.400;2023-02-01T10:33:23;12.95;;;3.20;;
69417;SDS011;56610;48.872;2.400;2023-02-01T10:35:52;18.67;;;4.90;;
69417;SDS011;56610;48.872;2.400;2023-02-01T10:38:27;12.68;;;3.70;;
69417;SDS011;56610;48.872;2.400;2023-02-01T10:40:55;15.07;;;3.80;;
69417;SDS011;56610;48.872;2.400;2023-02-01T10:43:27;16.60;;;4.05;;
69417;SDS011;56610;48.872;2.400;2023-02-01T10:45:53;11.35;;;3.45;;
69417;SDS011;56610;48.872;2.400;2023-02-01T10:48:18;15.40;;;3.97;;
69417;SDS011;56610;48.872;2.400;2023-02-01T10:50:53;11.80;;;3.63;;
69417;SDS011;56610;48.872;2.400;2023-02-01T10:53:31;10.65;;;3.53;;
69417;SDS011;56610;48.872;2.400;2023-02-01T10:56:10;14.25;;;3.72;;
69417;SDS011;56610;48.872;2.400;2023-02-01T10:58:45;14.80;;;3.60;;
69417;SDS011;56610;48.872;2.400;2023-02-01T11:01:22;13.60;;;3.70;;
69417;SDS011;56610;48.872;2.400;2023-02-01T11:03:54;15.73;;;3.60;;
69417;SDS011;56610;48.872;2.400;2023-02-01T11:06:29;13.10;;;3.80;;
69417;SDS011;56610;48.872;2.400;2023-02-01T11:11:31;14.25;;;4.10;;
69417;SDS011;56610;48.872;2.400;2023-02-01T11:13:58;10.27;;;3.38;;
69417;SDS011;56610;48.872;2.400;2023-02-01T11:16:33;14.93;;;4.18;;
69417;SDS011;56610;48.872;2.400;2023-02-01T11:19:03;10.60;;;3.72;;
69417;SDS011;56610;48.872;2.400;2023-02-01T11:21:30;15.95;;;3.40;;
69417;SDS011;56610;48.872;2.400;2023-02-01T11:24:00;15.02;;;3.47;;
69417;SDS011;56610;48.872;2.400;2023-02-01T11:26:28;12.45;;;4.15;;
69417;SDS011;56610;48.872;2.400;2023-02-01T11:31:26;16.50;;;4.22;;
69417;SDS011;56610;48.872;2.400;2023-02-01T11:33:54;14.07;;;3.55;;
69417;SDS011;56610;48.872;2.400;2023-02-01T11:36:27;13.57;;;3.67;;
69417;SDS011;56610;48.872;2.400;2023-02-01T11:42:00;13.38;;;4.05;;
69417;SDS011;56610;48.872;2.400;2023-02-01T11:44:43;13.23;;;4.03;;
69417;SDS011;56610;48.872;2.400;2023-02-01T11:49:52;14.38;;;3.78;;
69417;SDS011;56610;48.872;2.400;2023-02-01T11:52:29;13.63;;;4.40;;
69417;SDS011;56610;48.872;2.400;2023-02-01T11:55:17;16.38;;;4.18;;
69417;SDS011;56610;48.872;2.400;2023-02-01T11:58:02;18.02;;;4.57;;
69417;SDS011;56610;48.872;2.400;2023-02-01T12:23:06;11.73;;;4.03;;
69417;SDS011;56610;48.872;2.400;2023-02-01T12:31:48;12.73;;;4.00;;
69417;SDS011;56610;48.872;2.400;2023-02-01T12:34:39;8.93;;;3.45;;
69417;SDS011;56610;48.872;2.400;2023-02-01T12:37:55;10.75;;;3.05;;
69417;SDS011;56610;48.872;2.400;2023-02-01T12:40:53;10.60;;;3.10;;
69417;SDS011;56610;48.872;2.400;2023-02-01T12:45:56;10.45;;;2.67;;
69417;SDS011;56610;48.872;2.400;2023-02-01T12:48:34;13.02;;;3.28;;
69417;SDS011;56610;48.872;2.400;2023-02-01T12:51:09;11.45;;;3.47;;
69417;SDS011;56610;48.872;2.400;2023-02-01T12:56:14;12.27;;;3.53;;
69417;SDS011;56610;48.872;2.400;2023-02-01T12:59:03;9.05;;;3.53;;
69417;SDS011;56610;48.872;2.400;2023-02-01T13:01:42;14.18;;;4.10;;
69417;SDS011;56610;48.872;2.400;2023-02-01T13:04:33;12.13;;;3.30;;
69417;SDS011;56610;48.872;2.400;2023-02-01T13:07:10;11.00;;;3.45;;
69417;SDS011;56610;48.872;2.400;2023-02-01T13:09:41;10.77;;;3.80;;
69417;SDS011;56610;48.872;2.400;2023-02-01T13:12:21;13.03;;;3.67;;
69417;SDS011;56610;48.872;2.400;2023-02-01T13:14:58;11.93;;;3.70;;
69417;SDS011;56610;48.872;2.400;2023-02-01T13:17:30;12.35;;;3.45;;
69417;SDS011;56610;48.872;2.400;2023-02-01T13:22:39;11.05;;;3.17;;
69417;SDS011;56610;48.872;2.400;2023-02-01T13:28:17;8.45;;;3.20;;
69417;SDS011;56610;48.872;2.400;2023-02-01T13:33:40;10.48;;;3.63;;
69417;SDS011;56610;48.872;2.400;2023-02-01T13:41:53;8.93;;;2.78;;
69417;SDS011;56610;48.872;2.400;2023-02-01T13:47:10;13.55;;;3.55;;
69417;SDS011;56610;48.872;2.400;2023-02-01T13:49:49;10.20;;;3.10;;
69417;SDS011;56610;48.872;2.400;2023-02-01T13:52:51;12.55;;;3.55;;
69417;SDS011;56610;48.872;2.400;2023-02-01T13:57:38;11.05;;;3.20;;
69417;SDS011;56610;48.872;2.400;2023-02-01T14:13:34;11.75;;;3.30;;
69417;SDS011;56610;48.872;2.400;2023-02-01T14:31:41;12.90;;;3.00;;
69417;SDS011;56610;48.872;2.400;2023-02-01T14:35:00;10.55;;;3.08;;
69417;SDS011;56610;48.872;2.400;2023-02-01T14:42:29;11.18;;;3.25;;
69417;SDS011;56610;48.872;2.400;2023-02-01T14:47:45;11.73;;;3.55;;
69417;SDS011;56610;48.872;2.400;2023-02-01T15:01:32;12.70;;;3.58;;
69417;SDS011;56610;48.872;2.400;2023-02-01T15:04:09;11.98;;;3.38;;
69417;SDS011;56610;48.872;2.400;2023-02-01T15:14:33;9.23;;;2.72;;
69417;SDS011;56610;48.872;2.400;2023-02-01T15:17:01;11.43;;;3.10;;
69417;SDS011;56610;48.872;2.400;2023-02-01T15:19:27;10.65;;;2.97;;
69417;SDS011;56610;48.872;2.400;2023-02-01T15:21:56;8.48;;;2.92;;
69417;SDS011;56610;48.872;2.400;2023-02-01T15:24:24;9.75;;;2.80;;
69417;SDS011;56610;48.872;2.400;2023-02-01T15:26:52;12.07;;;3.63;;
69417;SDS011;56610;48.872;2.400;2023-02-01T15:29:19;7.57;;;2.47;;
69417;SDS011;56610;48.872;2.400;2023-02-01T15:31:52;11.43;;;3.08;;
69417;SDS011;56610;48.872;2.400;2023-02-01T15:34:18;10.90;;;3.10;;
69417;SDS011;56610;48.872;2.400;2023-02-01T15:36:45;11.75;;;2.97;;
69417;SDS011;56610;48.872;2.400;2023-02-01T15:39:12;12.27;;;3.20;;
69417;SDS011;56610;48.872;2.400;2023-02-01T15:41:43;8.43;;;2.70;;
69417;SDS011;56610;48.872;2.400;2023-02-01T15:44:18;11.38;;;3.15;;
69417;SDS011;56610;48.872;2.400;2023-02-01T15:47:06;11.55;;;3.50;;
69417;SDS011;56610;48.872;2.400;2023-02-01T15:49:53;8.57;;;2.67;;
69417;SDS011;56610;48.872;2.400;2023-02-01T15:55:04;9.93;;;3.03;;
69417;SDS011;56610;48.872;2.400;2023-02-01T15:57:35;10.77;;;2.47;;
69417;SDS011;56610;48.872;2.400;2023-02-01T16:00:18;9.60;;;2.60;;
69417;SDS011;56610;48.872;2.400;2023-02-01T16:08:16;10.52;;;3.00;;
69417;SDS011;56610;48.872;2.400;2023-02-01T16:10:49;12.50;;;3.17;;
69417;SDS011;56610;48.872;2.400;2023-02-01T16:13:17;13.35;;;2.90;;
69417;SDS011;56610;48.872;2.400;2023-02-01T16:18:11;9.05;;;2.72;;
69417;SDS011;56610;48.872;2.400;2023-02-01T16:20:38;10.43;;;3.08;;
69417;SDS011;56610;48.872;2.400;2023-02-01T16:23:06;8.18;;;2.83;;
69417;SDS011;56610;48.872;2.400;2023-02-01T16:25:32;9.68;;;2.63;;
69417;SDS011;56610;48.872;2.400;2023-02-01T16:27:58;10.70;;;2.70;;
69417;SDS011;56610;48.872;2.400;2023-02-01T16:30:23;7.93;;;2.70;;
69417;SDS011;56610;48.872;2.400;2023-02-01T16:32:56;10.38;;;2.95;;
69417;SDS011;56610;48.872;2.400;2023-02-01T16:35:24;8.82;;;3.00;;
69417;SDS011;56610;48.872;2.400;2023-02-01T16:37:50;8.05;;;2.63;;
69417;SDS011;56610;48.872;2.400;2023-02-01T16:40:16;8.90;;;3.33;;
69417;SDS011;56610;48.872;2.400;2023-02-01T16:42:42;8.77;;;3.17;;
69417;SDS011;56610;48.872;2.400;2023-02-01T16:45:14;8.45;;;2.70;;
69417;SDS011;56610;48.872;2.400;2023-02-01T16:47:40;9.52;;;2.67;;
69417;SDS011;56610;48.872;2.400;2023-02-01T16:50:18;7.82;;;2.85;;
69417;SDS011;56610;48.872;2.400;2023-02-01T16:52:47;11.25;;;2.80;;
69417;SDS011;56610;48.872;2.400;2023-02-01T16:55:16;9.77;;;3.08;;
69417;SDS011;56610;48.872;2.400;2023-02-01T16:57:43;10.95;;;3.35;;
69417;SDS011;56610;48.872;2.400;2023-02-01T17:00:10;9.05;;;3.25;;
69417;SDS011;56610;48.872;2.400;2023-02-01T17:02:36;9.70;;;2.80;;
69417;SDS011;56610;48.872;2.400;2023-02-01T17:05:02;8.75;;;2.53;;
69417;SDS011;56610;48.872;2.400;2023-02-01T17:07:28;13.30;;;2.90;;
69417;SDS011;56610;48.872;2.400;2023-02-01T17:09:54;12.20;;;3.38;;
69417;SDS011;56610;48.872;2.400;2023-02-01T17:12:21;9.38;;;2.88;;
69417;SDS011;56610;48.872;2.400;2023-02-01T17:14:52;9.00;;;2.70;;
69417;SDS011;56610;48.872;2.400;2023-02-01T17:17:18;9.77;;;2.67;;
69417;SDS011;56610;48.872;2.400;2023-02-01T17:19:49;11.95;;;3.42;;
69417;SDS011;56610;48.872;2.400;2023-02-01T17:22:18;8.48;;;2.70;;
69417;SDS011;56610;48.872;2.400;2023-02-01T17:24:44;7.32;;;2.63;;
69417;SDS011;56610;48.872;2.400;2023-02-01T17:27:10;10.05;;;3.00;;
69417;SDS011;56610;48.872;2.400;2023-02-01T17:29:36;8.30;;;2.90;;
69417;SDS011;56610;48.872;2.400;2023-02-01T17:32:01;9.90;;;3.08;;
69417;SDS011;56610;48.872;2.400;2023-02-01T17:34:35;9.18;;;2.75;;
69417;SDS011;56610;48.872;2.400;2023-02-01T17:37:00;9.80;;;3.00;;
69417;SDS011;56610;48.872;2.400;2023-02-01T17:39:26;8.63;;;3.40;;
69417;SDS011;56610;48.872;2.400;2023-02-01T17:42:10;9.57;;;3.20;;
69417;SDS011;56610;48.872;2.400;2023-02-01T17:44:36;8.93;;;3.40;;
69417;SDS011;56610;48.872;2.400;2023-02-01T17:47:02;10.50;;;3.03;;
69417;SDS011;56610;48.872;2.400;2023-02-01T17:49:28;9.43;;;3.20;;
69417;SDS011;56610;48.872;2.400;2023-02-01T17:51:54;9.18;;;2.83;;
69417;SDS011;56610;48.872;2.400;2023-02-01T17:54:20;8.23;;;3.03;;
69417;SDS011;56610;48.872;2.400;2023-02-01T17:56:46;11.50;;;3.40;;
69417;SDS011;56610;48.872;2.400;2023-02-01T17:59:15;10.23;;;3.28;;
69417;SDS011;56610;48.872;2.400;2023-02-01T18:01:41;12.20;;;3.30;;